sensor_id;sensor_type;location;lat;lon;timestamp;pressure;altitude;pressure_sealevel;temperature;humidity
20119;BME280;10220;42.716;23.306;2022-08-19T00:01:12;95003.13;;;24.19;100.00
20119;BME280;10220;42.716;23.306;2022-08-19T00:03:37;95001.03;;;24.47;100.00
20119;BME280;10220;42.716;23.306;2022-08-19T00:06:03;94999.69;;;24.63;100.00
20119;BME280;10220;42.716;23.306;2022-08-19T00:08:28;94994.13;;;24.33;100.00
20119;BME280;10220;42.716;23.306;2022-08-19T00:10:54;95003.88;;;24.37;100.00
20119;BME280;10220;42.716;23.306;2022-08-19T00:13:19;95001.94;;;24.56;100.00
20119;BME280;10220;42.716;23.306;2022-08-19T00:15:44;94983.91;;;24.58;98.82
20119;BME280;10220;42.716;23.306;2022-08-19T00:18:10;95006.47;;;24.56;99.27
20119;BME280;10220;42.716;23.306;2022-08-19T00:20:36;95008.81;;;23.94;100.00
20119;BME280;10220;42.716;23.306;2022-08-19T00:23:06;95002.75;;;24.25;100.00
20119;BME280;10220;42.716;23.306;2022-08-19T00:25:31;95007.91;;;23.85;100.00
20119;BME280;10220;42.716;23.306;2022-08-19T00:27:58;95007.94;;;23.98;100.00
20119;BME280;10220;42.716;23.306;2022-08-19T00:30:24;95011.78;;;23.92;100.00
20119;BME280;10220;42.716;23.306;2022-08-19T00:32:52;95004.47;;;23.48;100.00
20119;BME280;10220;42.716;23.306;2022-08-19T00:35:19;95015.31;;;23.64;100.00
20119;BME280;10220;42.716;23.306;2022-08-19T00:37:44;95010.78;;;23.88;100.00
20119;BME280;10220;42.716;23.306;2022-08-19T00:40:11;94990.09;;;23.35;100.00
20119;BME280;10220;42.716;23.306;2022-08-19T00:42:37;94997.75;;;23.55;100.00
20119;BME280;10220;42.716;23.306;2022-08-19T00:45:10;94958.66;;;23.15;100.00
20119;BME280;10220;42.716;23.306;2022-08-19T00:47:35;95008.72;;;22.84;100.00
20119;BME280;10220;42.716;23.306;2022-08-19T00:50:01;94957.22;;;22.58;100.00
20119;BME280;10220;42.716;23.306;2022-08-19T00:52:30;94996.66;;;23.01;100.00
20119;BME280;10220;42.716;23.306;2022-08-19T00:54:58;94978.00;;;23.11;100.00
20119;BME280;10220;42.716;23.306;2022-08-19T00:57:33;94998.97;;;23.63;100.00
20119;BME280;10220;42.716;23.306;2022-08-19T01:00:01;94945.19;;;22.70;100.00
20119;BME280;10220;42.716;23.306;2022-08-19T01:02:27;94989.00;;;22.76;100.00
20119;BME280;10220;42.716;23.306;2022-08-19T01:04:53;95003.31;;;23.35;100.00
20119;BME280;10220;42.716;23.306;2022-08-19T01:07:19;95010.38;;;23.03;100.00
20119;BME280;10220;42.716;23.306;2022-08-19T01:09:45;94993.72;;;22.79;100.00
20119;BME280;10220;42.716;23.306;2022-08-19T01:12:11;94994.25;;;23.41;100.00
20119;BME280;10220;42.716;23.306;2022-08-19T01:14:39;95000.63;;;23.40;100.00
20119;BME280;10220;42.716;23.306;2022-08-19T01:17:05;95011.28;;;22.42;100.00
20119;BME280;10220;42.716;23.306;2022-08-19T01:19:37;95008.94;;;22.87;100.00
20119;BME280;10220;42.716;23.306;2022-08-19T01:22:12;95007.22;;;23.01;100.00
20119;BME280;10220;42.716;23.306;2022-08-19T01:24:40;94922.69;;;22.03;100.00
20119;BME280;10220;42.716;23.306;2022-08-19T01:27:06;95001.06;;;22.59;100.00
20119;BME280;10220;42.716;23.306;2022-08-19T01:29:32;94994.19;;;22.06;100.00
20119;BME280;10220;42.716;23.306;2022-08-19T01:31:58;95005.16;;;22.18;100.00
20119;BME280;10220;42.716;23.306;2022-08-19T01:34:24;94996.72;;;22.44;100.00
20119;BME280;10220;42.716;23.306;2022-08-19T01:36:49;95002.41;;;22.80;100.00
20119;BME280;10220;42.716;23.306;2022-08-19T01:39:21;94986.94;;;22.68;100.00
20119;BME280;10220;42.716;23.306;2022-08-19T01:41:48;94995.31;;;22.29;100.00
20119;BME280;10220;42.716;23.306;2022-08-19T01:44:15;95001.94;;;21.93;100.00
20119;BME280;10220;42.716;23.306;2022-08-19T01:46:41;94987.47;;;21.52;100.00
20119;BME280;10220;42.716;23.306;2022-08-19T01:49:07;94987.63;;;21.66;100.00
20119;BME280;10220;42.716;23.306;2022-08-19T01:51:33;94980.50;;;21.28;100.00
20119;BME280;10220;42.716;23.306;2022-08-19T01:53:59;94998.91;;;22.09;100.00
20119;BME280;10220;42.716;23.306;2022-08-19T01:56:24;95009.09;;;22.21;100.00
20119;BME280;10220;42.716;23.306;2022-08-19T01:58:57;95014.56;;;22.29;100.00
20119;BME280;10220;42.716;23.306;2022-08-19T02:01:24;95014.00;;;22.60;100.00
20119;BME280;10220;42.716;23.306;2022-08-19T02:03:50;95014.38;;;22.26;100.00
20119;BME280;10220;42.716;23.306;2022-08-19T02:06:17;95013.13;;;21.80;100.00
20119;BME280;10220;42.716;23.306;2022-08-19T02:08:42;95013.81;;;21.90;100.00
20119;BME280;10220;42.716;23.306;2022-08-19T02:11:18;95013.69;;;22.39;100.00
20119;BME280;10220;42.716;23.306;2022-08-19T02:13:44;95002.31;;;21.82;100.00
20119;BME280;10220;42.716;23.306;2022-08-19T02:16:10;95005.81;;;22.05;100.00
20119;BME280;10220;42.716;23.306;2022-08-19T02:18:35;95015.41;;;21.91;100.00
20119;BME280;10220;42.716;23.306;2022-08-19T02:21:00;95011.91;;;21.24;100.00
20119;BME280;10220;42.716;23.306;2022-08-19T02:23:26;94994.94;;;20.87;100.00
20119;BME280;10220;42.716;23.306;2022-08-19T02:25:52;95014.28;;;21.21;100.00
20119;BME280;10220;42.716;23.306;2022-08-19T02:28:17;95006.38;;;22.02;100.00
20119;BME280;10220;42.716;23.306;2022-08-19T02:30:43;95009.31;;;22.52;100.00
20119;BME280;10220;42.716;23.306;2022-08-19T02:33:08;95011.03;;;22.67;100.00
20119;BME280;10220;42.716;23.306;2022-08-19T02:35:34;95010.84;;;21.69;100.00
20119;BME280;10220;42.716;23.306;2022-08-19T02:37:59;95001.78;;;20.88;100.00
20119;BME280;10220;42.716;23.306;2022-08-19T02:40:51;95022.44;;;20.52;100.00
20119;BME280;10220;42.716;23.306;2022-08-19T02:43:18;95001.03;;;20.68;100.00
20119;BME280;10220;42.716;23.306;2022-08-19T02:45:46;94994.88;;;20.19;100.00
20119;BME280;10220;42.716;23.306;2022-08-19T02:48:15;95011.69;;;20.03;100.00
20119;BME280;10220;42.716;23.306;2022-08-19T02:50:43;95012.22;;;19.96;100.00
20119;BME280;10220;42.716;23.306;2022-08-19T02:53:08;95012.69;;;20.37;100.00
20119;BME280;10220;42.716;23.306;2022-08-19T02:55:35;95002.59;;;20.84;100.00
20119;BME280;10220;42.716;23.306;2022-08-19T02:58:01;95012.66;;;21.30;100.00
20119;BME280;10220;42.716;23.306;2022-08-19T03:00:27;95007.53;;;21.86;100.00
20119;BME280;10220;42.716;23.306;2022-08-19T03:02:53;95019.34;;;21.13;100.00
20119;BME280;10220;42.716;23.306;2022-08-19T03:05:19;95014.88;;;20.15;100.00
20119;BME280;10220;42.716;23.306;2022-08-19T03:07:44;94973.97;;;20.48;100.00
20119;BME280;10220;42.716;23.306;2022-08-19T03:10:12;95013.78;;;21.14;100.00
20119;BME280;10220;42.716;23.306;2022-08-19T03:12:38;94996.31;;;21.28;100.00
20119;BME280;10220;42.716;23.306;2022-08-19T03:15:06;95018.53;;;21.65;100.00
20119;BME280;10220;42.716;23.306;2022-08-19T03:17:33;95010.28;;;21.72;100.00
20119;BME280;10220;42.716;23.306;2022-08-19T03:19:58;95017.13;;;22.06;100.00
20119;BME280;10220;42.716;23.306;2022-08-19T03:22:24;95013.69;;;22.10;100.00
20119;BME280;10220;42.716;23.306;2022-08-19T03:24:50;95023.13;;;22.16;100.00
20119;BME280;10220;42.716;23.306;2022-08-19T03:27:16;95018.38;;;21.42;100.00
20119;BME280;10220;42.716;23.306;2022-08-19T03:29:43;95014.66;;;21.00;100.00
20119;BME280;10220;42.716;23.306;2022-08-19T03:32:09;95018.97;;;20.66;100.00
20119;BME280;10220;42.716;23.306;2022-08-19T03:34:37;95017.38;;;20.70;100.00
20119;BME280;10220;42.716;23.306;2022-08-19T03:37:06;95015.78;;;20.69;100.00
20119;BME280;10220;42.716;23.306;2022-08-19T03:39:32;95019.31;;;20.35;100.00
20119;BME280;10220;42.716;23.306;2022-08-19T03:41:58;95019.13;;;20.99;100.00
20119;BME280;10220;42.716;23.306;2022-08-19T03:44:27;95034.22;;;20.69;100.00
20119;BME280;10220;42.716;23.306;2022-08-19T03:46:55;95031.88;;;20.58;100.00
20119;BME280;10220;42.716;23.306;2022-08-19T03:49:23;95031.16;;;21.20;100.00
20119;BME280;10220;42.716;23.306;2022-08-19T03:51:49;95036.28;;;21.50;100.00
20119;BME280;10220;42.716;23.306;2022-08-19T03:54:19;95033.25;;;21.71;100.00
20119;BME280;10220;42.716;23.306;2022-08-19T03:56:47;95033.31;;;21.61;100.00
20119;BME280;10220;42.716;23.306;2022-08-19T03:59:23;95035.78;;;20.85;100.00
20119;BME280;10220;42.716;23.306;2022-08-19T04:01:50;95049.72;;;20.90;100.00
20119;BME280;10220;42.716;23.306;2022-08-19T04:04:15;95054.22;;;20.85;100.00
20119;BME280;10220;42.716;23.306;2022-08-19T04:06:42;95040.09;;;21.19;100.00
20119;BME280;10220;42.716;23.306;2022-08-19T04:09:09;95058.31;;;21.21;100.00
20119;BME280;10220;42.716;23.306;2022-08-19T04:11:39;95046.50;;;21.08;100.00
20119;BME280;10220;42.716;23.306;2022-08-19T04:14:08;95052.19;;;20.52;100.00
20119;BME280;10220;42.716;23.306;2022-08-19T04:16:33;95057.44;;;20.62;100.00
20119;BME280;10220;42.716;23.306;2022-08-19T04:19:00;95047.41;;;20.74;100.00
20119;BME280;10220;42.716;23.306;2022-08-19T04:21:28;95057.91;;;21.52;100.00
20119;BME280;10220;42.716;23.306;2022-08-19T04:23:54;95005.75;;;21.77;100.00
20119;BME280;10220;42.716;23.306;2022-08-19T04:26:24;95055.69;;;21.69;100.00
20119;BME280;10220;42.716;23.306;2022-08-19T04:31:21;95057.16;;;21.41;100.00
20119;BME280;10220;42.716;23.306;2022-08-19T04:33:55;95063.06;;;21.14;100.00
20119;BME280;10220;42.716;23.306;2022-08-19T04:36:25;95044.41;;;21.05;100.00
20119;BME280;10220;42.716;23.306;2022-08-19T04:38:54;95063.88;;;21.09;100.00
20119;BME280;10220;42.716;23.306;2022-08-19T04:41:20;95024.91;;;21.06;100.00
20119;BME280;10220;42.716;23.306;2022-08-19T04:44:04;95035.53;;;22.16;100.00
20119;BME280;10220;42.716;23.306;2022-08-19T04:46:30;94990.94;;;22.66;100.00
20119;BME280;10220;42.716;23.306;2022-08-19T04:49:00;95022.31;;;23.19;100.00
20119;BME280;10220;42.716;23.306;2022-08-19T04:51:26;95069.38;;;23.22;100.00
20119;BME280;10220;42.716;23.306;2022-08-19T04:53:52;95037.38;;;23.42;100.00
20119;BME280;10220;42.716;23.306;2022-08-19T04:56:19;95066.31;;;23.10;100.00
20119;BME280;10220;42.716;23.306;2022-08-19T04:58:46;95059.59;;;23.59;100.00
20119;BME280;10220;42.716;23.306;2022-08-19T05:01:14;95065.94;;;23.81;100.00
20119;BME280;10220;42.716;23.306;2022-08-19T05:03:42;95066.19;;;23.62;100.00
20119;BME280;10220;42.716;23.306;2022-08-19T05:06:10;95071.09;;;23.31;100.00
20119;BME280;10220;42.716;23.306;2022-08-19T05:08:37;95072.16;;;23.30;100.00
20119;BME280;10220;42.716;23.306;2022-08-19T05:11:09;95069.53;;;23.49;100.00
20119;BME280;10220;42.716;23.306;2022-08-19T05:13:36;95039.47;;;22.75;100.00
20119;BME280;10220;42.716;23.306;2022-08-19T05:16:02;95076.38;;;22.56;100.00
20119;BME280;10220;42.716;23.306;2022-08-19T05:18:27;95057.38;;;23.06;100.00
20119;BME280;10220;42.716;23.306;2022-08-19T05:21:13;95044.34;;;23.14;100.00
20119;BME280;10220;42.716;23.306;2022-08-19T05:23:58;95078.88;;;24.01;100.00
20119;BME280;10220;42.716;23.306;2022-08-19T05:26:25;95067.78;;;23.99;100.00
20119;BME280;10220;42.716;23.306;2022-08-19T05:28:54;95076.84;;;24.30;100.00
20119;BME280;10220;42.716;23.306;2022-08-19T05:31:21;95066.59;;;23.50;100.00
20119;BME280;10220;42.716;23.306;2022-08-19T05:33:47;95075.13;;;23.65;100.00
20119;BME280;10220;42.716;23.306;2022-08-19T05:36:12;95074.19;;;23.57;100.00
20119;BME280;10220;42.716;23.306;2022-08-19T05:38:39;95085.25;;;23.22;100.00
20119;BME280;10220;42.716;23.306;2022-08-19T05:41:10;95071.88;;;23.08;100.00
20119;BME280;10220;42.716;23.306;2022-08-19T05:43:36;95084.28;;;23.13;100.00
20119;BME280;10220;42.716;23.306;2022-08-19T05:46:03;95070.50;;;22.88;100.00
20119;BME280;10220;42.716;23.306;2022-08-19T05:48:31;95057.91;;;22.80;100.00
20119;BME280;10220;42.716;23.306;2022-08-19T05:50:56;95061.03;;;23.10;100.00
20119;BME280;10220;42.716;23.306;2022-08-19T05:53:23;95072.13;;;23.54;100.00
20119;BME280;10220;42.716;23.306;2022-08-19T05:55:49;95063.16;;;23.31;100.00
20119;BME280;10220;42.716;23.306;2022-08-19T05:58:14;95063.66;;;22.63;100.00
20119;BME280;10220;42.716;23.306;2022-08-19T06:00:42;95070.81;;;22.58;100.00
20119;BME280;10220;42.716;23.306;2022-08-19T06:03:08;95084.63;;;22.78;100.00
20119;BME280;10220;42.716;23.306;2022-08-19T06:05:33;95086.94;;;22.85;100.00
20119;BME280;10220;42.716;23.306;2022-08-19T06:07:59;95075.97;;;22.73;100.00
20119;BME280;10220;42.716;23.306;2022-08-19T06:10:25;95070.31;;;22.84;100.00
20119;BME280;10220;42.716;23.306;2022-08-19T06:12:51;95058.75;;;23.04;100.00
20119;BME280;10220;42.716;23.306;2022-08-19T06:15:17;95002.88;;;22.63;100.00
20119;BME280;10220;42.716;23.306;2022-08-19T06:17:42;95081.06;;;23.16;100.00
20119;BME280;10220;42.716;23.306;2022-08-19T06:20:11;95082.28;;;23.47;100.00
20119;BME280;10220;42.716;23.306;2022-08-19T06:22:42;95074.75;;;23.77;100.00
20119;BME280;10220;42.716;23.306;2022-08-19T06:25:09;95070.69;;;23.61;100.00
20119;BME280;10220;42.716;23.306;2022-08-19T06:27:35;95060.28;;;24.06;100.00
20119;BME280;10220;42.716;23.306;2022-08-19T06:30:03;95064.66;;;24.29;100.00
20119;BME280;10220;42.716;23.306;2022-08-19T06:32:28;95069.47;;;24.59;100.00
20119;BME280;10220;42.716;23.306;2022-08-19T06:34:54;95084.00;;;24.48;100.00
20119;BME280;10220;42.716;23.306;2022-08-19T06:37:20;95065.00;;;24.73;98.79
20119;BME280;10220;42.716;23.306;2022-08-19T06:39:47;95079.81;;;24.74;98.16
20119;BME280;10220;42.716;23.306;2022-08-19T06:42:12;95076.75;;;25.12;96.56
20119;BME280;10220;42.716;23.306;2022-08-19T06:44:43;95068.47;;;25.27;91.26
20119;BME280;10220;42.716;23.306;2022-08-19T06:47:12;95064.28;;;25.26;91.50
20119;BME280;10220;42.716;23.306;2022-08-19T06:49:38;95070.50;;;25.83;88.84
20119;BME280;10220;42.716;23.306;2022-08-19T06:52:04;95081.94;;;25.70;89.96
20119;BME280;10220;42.716;23.306;2022-08-19T06:54:30;95066.66;;;25.62;91.10
20119;BME280;10220;42.716;23.306;2022-08-19T06:57:00;95072.56;;;26.08;87.35
20119;BME280;10220;42.716;23.306;2022-08-19T06:59:30;95072.34;;;26.62;81.79
20119;BME280;10220;42.716;23.306;2022-08-19T07:01:59;95081.78;;;26.98;79.41
20119;BME280;10220;42.716;23.306;2022-08-19T07:04:28;95085.91;;;27.04;80.25
20119;BME280;10220;42.716;23.306;2022-08-19T07:07:01;95082.06;;;26.66;83.16
20119;BME280;10220;42.716;23.306;2022-08-19T07:09:28;95081.19;;;27.48;75.03
20119;BME280;10220;42.716;23.306;2022-08-19T07:11:54;95044.94;;;27.22;73.10
20119;BME280;10220;42.716;23.306;2022-08-19T07:14:22;95066.28;;;27.38;74.90
20119;BME280;10220;42.716;23.306;2022-08-19T07:16:50;95081.59;;;27.88;74.84
20119;BME280;10220;42.716;23.306;2022-08-19T07:19:17;95076.72;;;27.65;76.52
20119;BME280;10220;42.716;23.306;2022-08-19T07:21:44;95067.66;;;27.83;73.82
20119;BME280;10220;42.716;23.306;2022-08-19T07:24:10;95061.25;;;27.37;75.53
20119;BME280;10220;42.716;23.306;2022-08-19T07:26:39;95077.06;;;28.06;74.29
20119;BME280;10220;42.716;23.306;2022-08-19T07:29:06;95056.06;;;27.87;73.33
20119;BME280;10220;42.716;23.306;2022-08-19T07:31:32;95078.91;;;27.63;74.37
20119;BME280;10220;42.716;23.306;2022-08-19T07:34:03;95074.81;;;27.66;75.34
20119;BME280;10220;42.716;23.306;2022-08-19T07:36:33;95050.91;;;28.16;72.80
20119;BME280;10220;42.716;23.306;2022-08-19T07:39:02;95064.53;;;28.40;70.86
20119;BME280;10220;42.716;23.306;2022-08-19T07:41:28;95074.13;;;28.33;70.20
20119;BME280;10220;42.716;23.306;2022-08-19T07:43:57;95044.47;;;28.09;72.58
20119;BME280;10220;42.716;23.306;2022-08-19T07:46:23;95072.50;;;28.65;66.79
20119;BME280;10220;42.716;23.306;2022-08-19T07:48:49;95053.38;;;28.63;65.46
20119;BME280;10220;42.716;23.306;2022-08-19T07:51:20;95052.59;;;28.54;65.30
20119;BME280;10220;42.716;23.306;2022-08-19T07:53:47;95071.22;;;28.80;62.67
20119;BME280;10220;42.716;23.306;2022-08-19T07:56:14;95039.63;;;28.90;62.85
20119;BME280;10220;42.716;23.306;2022-08-19T07:58:42;95057.75;;;28.68;66.32
20119;BME280;10220;42.716;23.306;2022-08-19T08:01:11;95064.19;;;29.21;63.52
20119;BME280;10220;42.716;23.306;2022-08-19T08:03:37;95039.50;;;29.32;61.22
20119;BME280;10220;42.716;23.306;2022-08-19T08:06:21;95066.97;;;29.90;58.65
20119;BME280;10220;42.716;23.306;2022-08-19T08:09:06;95046.41;;;29.82;58.53
20119;BME280;10220;42.716;23.306;2022-08-19T08:12:13;95060.38;;;29.88;57.29
20119;BME280;10220;42.716;23.306;2022-08-19T08:14:43;95032.69;;;29.92;57.62
20119;BME280;10220;42.716;23.306;2022-08-19T08:17:17;95048.00;;;30.04;57.39
20119;BME280;10220;42.716;23.306;2022-08-19T08:19:44;95034.97;;;30.55;55.16
20119;BME280;10220;42.716;23.306;2022-08-19T08:22:11;95049.84;;;30.76;55.01
20119;BME280;10220;42.716;23.306;2022-08-19T08:24:56;95020.03;;;30.54;53.40
20119;BME280;10220;42.716;23.306;2022-08-19T08:27:25;95026.53;;;30.65;54.08
20119;BME280;10220;42.716;23.306;2022-08-19T08:29:54;95031.47;;;30.87;52.02
20119;BME280;10220;42.716;23.306;2022-08-19T08:32:19;94999.56;;;30.37;55.85
20119;BME280;10220;42.716;23.306;2022-08-19T08:34:45;94970.03;;;30.14;53.63
20119;BME280;10220;42.716;23.306;2022-08-19T08:37:10;95044.84;;;30.87;53.64
20119;BME280;10220;42.716;23.306;2022-08-19T08:39:35;95034.78;;;31.04;52.05
20119;BME280;10220;42.716;23.306;2022-08-19T08:42:15;95005.97;;;31.25;51.06
20119;BME280;10220;42.716;23.306;2022-08-19T08:44:53;95032.31;;;30.99;52.09
20119;BME280;10220;42.716;23.306;2022-08-19T08:47:25;95028.66;;;31.15;51.17
20119;BME280;10220;42.716;23.306;2022-08-19T08:49:59;95028.09;;;31.34;50.12
20119;BME280;10220;42.716;23.306;2022-08-19T08:52:36;95020.47;;;31.71;48.76
20119;BME280;10220;42.716;23.306;2022-08-19T08:55:18;95019.69;;;31.71;49.62
20119;BME280;10220;42.716;23.306;2022-08-19T09:00:19;95008.75;;;31.40;49.19
20119;BME280;10220;42.716;23.306;2022-08-19T09:02:46;95010.00;;;31.54;46.95
20119;BME280;10220;42.716;23.306;2022-08-19T09:05:12;95014.13;;;31.52;46.18
20119;BME280;10220;42.716;23.306;2022-08-19T09:07:53;94983.13;;;31.78;44.78
20119;BME280;10220;42.716;23.306;2022-08-19T09:10:46;95009.19;;;32.17;46.36
20119;BME280;10220;42.716;23.306;2022-08-19T09:15:48;94993.16;;;32.32;44.93
20119;BME280;10220;42.716;23.306;2022-08-19T09:18:16;94993.44;;;32.85;43.17
20119;BME280;10220;42.716;23.306;2022-08-19T09:20:42;94988.88;;;32.59;41.48
20119;BME280;10220;42.716;23.306;2022-08-19T09:23:08;94997.22;;;32.42;43.50
20119;BME280;10220;42.716;23.306;2022-08-19T09:25:37;94987.53;;;32.37;41.90
20119;BME280;10220;42.716;23.306;2022-08-19T09:28:05;95000.06;;;32.61;40.98
20119;BME280;10220;42.716;23.306;2022-08-19T09:30:41;94978.78;;;32.68;40.40
20119;BME280;10220;42.716;23.306;2022-08-19T09:33:07;94943.44;;;32.38;40.98
20119;BME280;10220;42.716;23.306;2022-08-19T09:35:33;94977.66;;;32.69;39.12
20119;BME280;10220;42.716;23.306;2022-08-19T09:37:59;94948.47;;;32.24;39.99
20119;BME280;10220;42.716;23.306;2022-08-19T09:40:26;94938.72;;;31.93;39.82
20119;BME280;10220;42.716;23.306;2022-08-19T09:42:53;94972.44;;;32.60;37.97
20119;BME280;10220;42.716;23.306;2022-08-19T09:45:20;94991.59;;;32.74;38.69
20119;BME280;10220;42.716;23.306;2022-08-19T09:47:48;94991.63;;;33.05;38.38
20119;BME280;10220;42.716;23.306;2022-08-19T09:50:14;94988.88;;;33.01;39.90
20119;BME280;10220;42.716;23.306;2022-08-19T09:52:39;94957.19;;;32.95;40.52
20119;BME280;10220;42.716;23.306;2022-08-19T09:55:08;94969.06;;;33.40;38.01
20119;BME280;10220;42.716;23.306;2022-08-19T09:57:34;94960.91;;;33.52;36.82
20119;BME280;10220;42.716;23.306;2022-08-19T10:00:00;94965.16;;;33.72;35.94
20119;BME280;10220;42.716;23.306;2022-08-19T10:02:26;94957.84;;;33.53;36.16
20119;BME280;10220;42.716;23.306;2022-08-19T10:04:51;94953.47;;;33.98;35.46
20119;BME280;10220;42.716;23.306;2022-08-19T10:07:36;94959.78;;;33.91;35.70
20119;BME280;10220;42.716;23.306;2022-08-19T10:10:04;94946.25;;;34.02;36.25
20119;BME280;10220;42.716;23.306;2022-08-19T10:12:31;94952.66;;;34.17;35.69
20119;BME280;10220;42.716;23.306;2022-08-19T10:14:58;94942.78;;;34.24;35.73
20119;BME280;10220;42.716;23.306;2022-08-19T10:17:23;94948.13;;;34.21;35.62
20119;BME280;10220;42.716;23.306;2022-08-19T10:19:50;94945.88;;;34.04;35.78
20119;BME280;10220;42.716;23.306;2022-08-19T10:22:18;94955.94;;;34.26;35.75
20119;BME280;10220;42.716;23.306;2022-08-19T10:24:45;94946.72;;;34.08;36.27
20119;BME280;10220;42.716;23.306;2022-08-19T10:27:10;94939.56;;;34.15;36.71
20119;BME280;10220;42.716;23.306;2022-08-19T10:29:38;94945.63;;;34.31;35.82
20119;BME280;10220;42.716;23.306;2022-08-19T10:32:05;94942.47;;;34.07;36.26
20119;BME280;10220;42.716;23.306;2022-08-19T10:34:33;94944.88;;;34.12;36.52
20119;BME280;10220;42.716;23.306;2022-08-19T10:36:59;94948.25;;;34.28;35.80
20119;BME280;10220;42.716;23.306;2022-08-19T10:39:26;94896.25;;;34.24;35.53
20119;BME280;10220;42.716;23.306;2022-08-19T10:41:54;94933.22;;;34.27;35.47
20119;BME280;10220;42.716;23.306;2022-08-19T10:44:22;94940.72;;;34.37;35.70
20119;BME280;10220;42.716;23.306;2022-08-19T10:46:48;94934.31;;;34.22;35.79
20119;BME280;10220;42.716;23.306;2022-08-19T10:49:13;94939.34;;;34.46;35.32
20119;BME280;10220;42.716;23.306;2022-08-19T10:51:40;94929.03;;;34.29;35.60
20119;BME280;10220;42.716;23.306;2022-08-19T10:54:25;94925.75;;;34.17;36.99
20119;BME280;10220;42.716;23.306;2022-08-19T10:57:15;94928.31;;;34.51;37.09
20119;BME280;10220;42.716;23.306;2022-08-19T10:59:41;94935.56;;;34.47;35.83
20119;BME280;10220;42.716;23.306;2022-08-19T11:02:09;94891.00;;;34.31;35.95
20119;BME280;10220;42.716;23.306;2022-08-19T11:04:38;94923.47;;;34.19;35.22
20119;BME280;10220;42.716;23.306;2022-08-19T11:07:05;94932.38;;;34.23;36.34
20119;BME280;10220;42.716;23.306;2022-08-19T11:09:37;94920.63;;;33.93;36.05
20119;BME280;10220;42.716;23.306;2022-08-19T11:12:04;94918.25;;;34.07;35.89
20119;BME280;10220;42.716;23.306;2022-08-19T11:14:29;94925.66;;;34.32;37.21
20119;BME280;10220;42.716;23.306;2022-08-19T11:16:58;94921.16;;;34.58;36.45
20119;BME280;10220;42.716;23.306;2022-08-19T11:19:25;94913.44;;;34.57;36.96
20119;BME280;10220;42.716;23.306;2022-08-19T11:21:51;94918.16;;;34.63;36.44
20119;BME280;10220;42.716;23.306;2022-08-19T11:24:23;94916.34;;;34.49;36.62
20119;BME280;10220;42.716;23.306;2022-08-19T11:26:50;94908.41;;;34.37;37.03
20119;BME280;10220;42.716;23.306;2022-08-19T11:29:18;94900.69;;;34.35;37.30
20119;BME280;10220;42.716;23.306;2022-08-19T11:31:47;94907.13;;;34.72;35.65
20119;BME280;10220;42.716;23.306;2022-08-19T11:34:17;94897.00;;;35.10;35.80
20119;BME280;10220;42.716;23.306;2022-08-19T11:36:45;94886.72;;;35.19;34.87
20119;BME280;10220;42.716;23.306;2022-08-19T11:39:15;94911.50;;;34.80;36.01
20119;BME280;10220;42.716;23.306;2022-08-19T11:41:40;94894.78;;;35.19;35.49
20119;BME280;10220;42.716;23.306;2022-08-19T11:44:06;94888.28;;;35.46;34.82
20119;BME280;10220;42.716;23.306;2022-08-19T11:46:34;94883.53;;;35.65;34.69
20119;BME280;10220;42.716;23.306;2022-08-19T11:49:01;94884.75;;;36.00;34.39
20119;BME280;10220;42.716;23.306;2022-08-19T11:51:28;94882.28;;;35.88;34.02
20119;BME280;10220;42.716;23.306;2022-08-19T11:53:55;94889.84;;;35.47;34.10
20119;BME280;10220;42.716;23.306;2022-08-19T11:56:22;94855.28;;;35.56;34.51
20119;BME280;10220;42.716;23.306;2022-08-19T11:58:49;94874.25;;;36.32;33.80
20119;BME280;10220;42.716;23.306;2022-08-19T12:01:17;94866.16;;;36.32;34.13
20119;BME280;10220;42.716;23.306;2022-08-19T12:03:44;94846.59;;;36.85;33.09
20119;BME280;10220;42.716;23.306;2022-08-19T12:06:13;94860.94;;;36.92;33.58
20119;BME280;10220;42.716;23.306;2022-08-19T12:08:40;94861.13;;;36.30;33.74
20119;BME280;10220;42.716;23.306;2022-08-19T12:11:06;94848.81;;;35.64;34.12
20119;BME280;10220;42.716;23.306;2022-08-19T12:13:33;94833.59;;;35.49;34.59
20119;BME280;10220;42.716;23.306;2022-08-19T12:16:00;94843.06;;;35.39;35.22
20119;BME280;10220;42.716;23.306;2022-08-19T12:18:26;94853.03;;;35.35;36.16
20119;BME280;10220;42.716;23.306;2022-08-19T12:20:53;94849.41;;;35.50;35.25
20119;BME280;10220;42.716;23.306;2022-08-19T12:23:21;94851.78;;;35.26;34.79
20119;BME280;10220;42.716;23.306;2022-08-19T12:25:48;94837.41;;;35.18;34.31
20119;BME280;10220;42.716;23.306;2022-08-19T12:28:20;94841.41;;;34.76;34.83
20119;BME280;10220;42.716;23.306;2022-08-19T12:30:47;94824.63;;;34.64;35.18
20119;BME280;10220;42.716;23.306;2022-08-19T12:33:13;94823.91;;;34.67;35.47
20119;BME280;10220;42.716;23.306;2022-08-19T12:35:43;94833.56;;;34.68;35.66
20119;BME280;10220;42.716;23.306;2022-08-19T12:38:09;94831.81;;;34.12;35.73
20119;BME280;10220;42.716;23.306;2022-08-19T12:40:35;94814.09;;;33.70;36.06
20119;BME280;10220;42.716;23.306;2022-08-19T12:43:00;94823.97;;;34.03;36.44
20119;BME280;10220;42.716;23.306;2022-08-19T12:45:26;94836.19;;;34.20;36.14
20119;BME280;10220;42.716;23.306;2022-08-19T12:47:51;94791.81;;;34.10;36.20
20119;BME280;10220;42.716;23.306;2022-08-19T12:50:18;94813.06;;;34.15;35.76
20119;BME280;10220;42.716;23.306;2022-08-19T12:52:44;94811.50;;;33.95;37.15
20119;BME280;10220;42.716;23.306;2022-08-19T12:55:10;94769.22;;;33.74;37.63
20119;BME280;10220;42.716;23.306;2022-08-19T12:57:36;94816.88;;;33.95;36.68